createdAt,value
2019-05-20T00:00:59.679Z,36.60
2019-05-20T00:03:28.151Z,35.10
2019-05-20T00:05:56.765Z,36.20
2019-05-20T00:08:25.267Z,38.80
2019-05-20T00:10:53.935Z,36.57
2019-05-20T00:13:22.405Z,31.63
2019-05-20T00:15:50.979Z,31.00
2019-05-20T00:18:19.463Z,33.30
2019-05-20T00:20:47.951Z,30.13
2019-05-20T00:23:16.431Z,31.80
2019-05-20T00:25:44.930Z,30.50
2019-05-20T00:28:13.397Z,31.10
2019-05-20T00:30:41.863Z,31.50
2019-05-20T00:33:10.375Z,27.83
2019-05-20T00:35:38.910Z,32.63
2019-05-20T00:38:07.379Z,30.13
2019-05-20T00:40:35.866Z,32.70
2019-05-20T00:43:04.850Z,30.43
2019-05-20T00:45:33.325Z,30.43
2019-05-20T00:48:01.805Z,30.57
2019-05-20T00:50:30.574Z,29.50
2019-05-20T00:52:59.443Z,30.17
2019-05-20T00:55:30.995Z,31.33
2019-05-20T00:58:00.529Z,27.32
2019-05-20T01:00:29.856Z,26.97
2019-05-20T01:02:58.403Z,27.10
2019-05-20T01:05:26.918Z,24.73
2019-05-20T01:07:55.446Z,28.80
2019-05-20T01:10:23.931Z,25.10
2019-05-20T01:12:52.501Z,26.47
2019-05-20T01:15:21.969Z,30.00
2019-05-20T01:17:50.629Z,27.27
2019-05-20T01:20:19.443Z,27.10
2019-05-20T01:22:47.923Z,24.10
2019-05-20T01:25:16.807Z,28.37
2019-05-20T01:27:45.277Z,28.03
2019-05-20T01:30:16.200Z,29.75
2019-05-20T01:32:44.690Z,30.73
2019-05-20T01:35:14.202Z,29.27
2019-05-20T01:37:42.698Z,29.20
2019-05-20T01:40:13.418Z,28.57
2019-05-20T01:42:41.990Z,27.93
2019-05-20T01:45:11.394Z,31.07
2019-05-20T01:47:39.871Z,30.57
2019-05-20T01:50:09.372Z,28.60
2019-05-20T01:52:37.835Z,30.70
2019-05-20T01:55:07.669Z,31.90
2019-05-20T01:57:36.286Z,36.43
2019-05-20T02:00:07.926Z,33.23
2019-05-20T02:02:36.806Z,33.83
2019-05-20T02:05:07.632Z,30.43
2019-05-20T02:07:36.519Z,32.00
2019-05-20T02:10:08.395Z,33.07
2019-05-20T02:12:36.942Z,35.00
2019-05-20T02:15:22.713Z,33.40
2019-05-20T02:17:51.209Z,34.87
2019-05-20T02:20:19.706Z,35.30
2019-05-20T02:22:48.247Z,36.73
2019-05-20T02:25:18.063Z,33.40
2019-05-20T02:27:46.613Z,36.53
2019-05-20T02:30:15.430Z,37.57
2019-05-20T02:32:43.913Z,37.23
2019-05-20T02:35:12.392Z,35.43
2019-05-20T02:37:40.866Z,38.47
2019-05-20T02:40:10.479Z,39.07
2019-05-20T02:42:38.941Z,31.47
2019-05-20T02:45:08.788Z,34.67
2019-05-20T02:47:37.730Z,34.67
2019-05-20T02:50:07.334Z,35.37
2019-05-20T02:52:35.984Z,39.57
2019-05-20T02:55:06.876Z,35.57
2019-05-20T02:57:35.341Z,41.00
2019-05-20T03:00:07.020Z,40.87
2019-05-20T03:02:35.568Z,42.93
2019-05-20T03:05:06.559Z,38.77
2019-05-20T03:07:35.044Z,43.87
2019-05-20T03:10:04.861Z,38.37
2019-05-20T03:12:33.356Z,37.37
2019-05-20T03:15:01.905Z,42.27
2019-05-20T03:17:30.457Z,40.80
2019-05-20T03:19:59.023Z,43.37
2019-05-20T03:22:27.484Z,43.37
2019-05-20T03:24:55.983Z,44.30
2019-05-20T03:27:24.520Z,41.73
2019-05-20T03:29:53.071Z,44.00
2019-05-20T03:32:21.629Z,39.50
2019-05-20T03:34:58.442Z,46.23
2019-05-20T03:37:20.403Z,46.17
2019-05-20T03:39:48.987Z,47.07
2019-05-20T03:42:17.626Z,45.67
2019-05-20T03:44:46.108Z,42.77
2019-05-20T03:47:14.642Z,45.93
2019-05-20T03:49:43.512Z,48.57
2019-05-20T03:52:12.013Z,41.83
2019-05-20T03:54:40.564Z,43.17
2019-05-20T03:57:09.088Z,44.27
2019-05-20T03:59:37.811Z,46.17
2019-05-20T04:02:06.358Z,42.83
2019-05-20T04:04:34.842Z,43.63
2019-05-20T04:07:03.334Z,41.60
2019-05-20T04:09:31.813Z,44.03
2019-05-20T04:12:00.759Z,40.67
2019-05-20T04:14:29.329Z,44.40
2019-05-20T04:16:57.920Z,45.17
2019-05-20T04:19:26.464Z,42.87
2019-05-20T04:21:54.946Z,39.60
2019-05-20T04:24:23.499Z,38.80
2019-05-20T04:26:57.783Z,40.60
2019-05-20T04:29:26.396Z,38.60
2019-05-20T04:31:55.015Z,40.40
2019-05-20T04:34:23.487Z,43.07
2019-05-20T04:36:52.098Z,42.67
2019-05-20T04:39:20.644Z,42.83
2019-05-20T04:41:49.192Z,48.20
2019-05-20T04:44:17.693Z,53.90
2019-05-20T04:46:46.157Z,52.27
2019-05-20T04:49:14.638Z,54.77
2019-05-20T04:51:43.126Z,57.20
2019-05-20T04:54:11.691Z,62.37
2019-05-20T04:56:40.282Z,65.17
2019-05-20T04:59:08.812Z,61.43
2019-05-20T05:01:37.306Z,65.53
2019-05-20T05:04:05.925Z,65.80
2019-05-20T05:06:34.939Z,63.77
2019-05-20T05:09:04.997Z,65.27
2019-05-20T05:11:33.747Z,56.20
2019-05-20T05:14:02.287Z,53.33
2019-05-20T05:16:30.846Z,49.60
2019-05-20T05:18:59.352Z,47.80
2019-05-20T05:21:27.895Z,44.27
2019-05-20T05:23:59.297Z,44.73
2019-05-20T05:26:27.238Z,43.27
2019-05-20T05:28:55.775Z,40.03
2019-05-20T05:31:24.256Z,44.33
2019-05-20T05:33:54.453Z,48.70
2019-05-20T05:36:23.148Z,46.10
2019-05-20T05:38:51.619Z,43.93
2019-05-20T05:41:20.106Z,47.87
2019-05-20T05:43:56.280Z,45.13
2019-05-20T05:46:33.494Z,43.87
2019-05-20T05:49:06.816Z,45.77
2019-05-20T05:51:35.311Z,46.40
2019-05-20T05:54:04.977Z,47.23
2019-05-20T05:56:33.468Z,45.87
2019-05-20T05:59:02.130Z,45.17
2019-05-20T06:01:30.676Z,43.60
2019-05-20T06:03:59.237Z,50.73
2019-05-20T06:06:27.790Z,47.23
2019-05-20T06:08:56.259Z,47.17
2019-05-20T06:11:24.754Z,46.20
2019-05-20T06:13:53.405Z,53.17
2019-05-20T06:16:35.930Z,48.98
2019-05-20T06:18:52.200Z,52.47
2019-05-20T06:21:20.771Z,53.67
2019-05-20T06:23:49.370Z,54.03
2019-05-20T06:26:17.931Z,53.47
2019-05-20T06:28:46.431Z,59.70
2019-05-20T06:31:14.993Z,58.80
2019-05-20T06:33:43.566Z,64.87
2019-05-20T06:36:25.904Z,74.27
2019-05-20T06:38:44.262Z,75.93
2019-05-20T06:41:12.747Z,75.30
2019-05-20T06:43:41.331Z,67.33
2019-05-20T06:46:09.924Z,68.70
2019-05-20T06:48:38.418Z,67.33
2019-05-20T06:51:07.120Z,63.47
2019-05-20T06:53:35.664Z,64.37
2019-05-20T06:56:04.504Z,65.15
2019-05-20T06:58:33.047Z,70.27
2019-05-20T07:01:05.770Z,67.73
2019-05-20T07:03:34.895Z,60.53
2019-05-20T07:06:03.507Z,50.70
2019-05-20T07:08:32.055Z,52.87
2019-05-20T07:11:00.569Z,53.20
2019-05-20T07:13:29.046Z,55.50
2019-05-20T07:15:57.569Z,47.35
2019-05-20T07:18:27.535Z,49.47
2019-05-20T07:20:56.302Z,56.03
2019-05-20T07:23:24.802Z,60.00
2019-05-20T07:25:53.308Z,58.93
2019-05-20T07:28:22.329Z,52.57
2019-05-20T07:30:50.938Z,56.13
2019-05-20T07:33:19.504Z,55.65
2019-05-20T07:35:48.020Z,49.18
2019-05-20T07:38:16.506Z,53.10
2019-05-20T07:40:45.133Z,52.85
2019-05-20T07:43:13.695Z,49.93
2019-05-20T07:45:44.351Z,54.98
2019-05-20T07:48:13.185Z,54.55
2019-05-20T07:50:42.925Z,50.23
2019-05-20T07:53:15.152Z,50.88
2019-05-20T07:55:52.409Z,49.50
2019-05-20T07:58:24.450Z,48.50
2019-05-20T08:00:53.002Z,50.10
2019-05-20T08:03:22.499Z,50.88
2019-05-20T08:05:51.120Z,55.28
2019-05-20T08:08:19.718Z,50.85
2019-05-20T08:10:48.456Z,52.35
2019-05-20T08:13:17.215Z,50.88
2019-05-20T08:15:46.096Z,54.03
2019-05-20T08:18:14.599Z,50.38
2019-05-20T08:20:47.019Z,54.90
2019-05-20T08:23:18.412Z,54.45
2019-05-20T08:25:47.270Z,60.90
2019-05-20T08:28:15.757Z,50.35
2019-05-20T08:30:45.316Z,45.92
2019-05-20T08:33:13.857Z,45.98
2019-05-20T08:35:42.335Z,43.78
2019-05-20T08:38:10.845Z,39.73
2019-05-20T08:40:40.699Z,47.80
2019-05-20T08:43:10.342Z,40.00
2019-05-20T08:45:42.066Z,45.35
2019-05-20T08:48:10.542Z,33.88
2019-05-20T08:50:42.273Z,35.58
2019-05-20T08:53:14.743Z,35.08
2019-05-20T08:55:45.524Z,35.05
2019-05-20T08:58:18.354Z,41.05
2019-05-20T09:00:44.287Z,47.73
2019-05-20T09:03:12.783Z,40.48
2019-05-20T09:05:44.508Z,42.23
2019-05-20T09:08:13.075Z,47.65
2019-05-20T09:10:43.019Z,43.75
2019-05-20T09:13:11.784Z,51.60
2019-05-20T09:15:40.263Z,53.75
2019-05-20T09:18:08.783Z,55.15
2019-05-20T09:20:37.335Z,61.10
2019-05-20T09:23:05.921Z,56.02
2019-05-20T09:25:34.852Z,57.53
2019-05-20T09:28:03.463Z,60.83
2019-05-20T09:30:32.207Z,56.15
2019-05-20T09:33:00.982Z,54.60
2019-05-20T09:35:29.966Z,56.77
2019-05-20T09:37:58.935Z,59.88
2019-05-20T09:40:41.940Z,57.55
2019-05-20T09:43:10.915Z,63.00
2019-05-20T09:45:39.615Z,54.18
2019-05-20T09:48:08.680Z,51.15
2019-05-20T09:50:37.837Z,52.23
2019-05-20T09:53:07.858Z,48.80
2019-05-20T09:55:36.803Z,49.73
2019-05-20T09:58:06.541Z,44.70
2019-05-20T10:00:35.761Z,47.00
2019-05-20T10:03:06.332Z,50.85
2019-05-20T10:05:37.455Z,48.75
2019-05-20T10:08:06.506Z,53.13
2019-05-20T10:10:35.536Z,42.40
2019-05-20T10:13:05.873Z,41.92
2019-05-20T10:15:34.941Z,42.27
2019-05-20T10:18:03.382Z,49.53
2019-05-20T10:20:32.795Z,40.98
2019-05-20T10:23:07.381Z,35.88
2019-05-20T10:25:55.337Z,40.17
2019-05-20T10:28:25.805Z,41.60
2019-05-20T10:30:58.313Z,37.30
2019-05-20T10:33:28.165Z,31.93
2019-05-20T10:36:02.382Z,33.18
2019-05-20T10:38:35.016Z,31.85
2019-05-20T10:41:07.668Z,31.62
2019-05-20T10:43:37.851Z,29.55
2019-05-20T10:46:06.374Z,31.87
2019-05-20T10:48:34.918Z,28.12
2019-05-20T10:51:03.473Z,28.85
2019-05-20T10:53:32.047Z,28.02
2019-05-20T10:56:01.608Z,29.18
2019-05-20T10:58:30.545Z,26.93
2019-05-20T11:01:03.291Z,27.32
2019-05-20T11:03:29.498Z,28.07
2019-05-20T11:05:58.007Z,31.20
2019-05-20T11:08:26.579Z,25.62
2019-05-20T11:10:55.051Z,26.75
2019-05-20T11:13:23.902Z,35.45
2019-05-20T11:15:52.638Z,29.70
2019-05-20T11:18:21.259Z,28.70
2019-05-20T11:20:49.784Z,26.68
2019-05-20T11:23:18.630Z,25.68
2019-05-20T11:25:47.145Z,24.40
2019-05-20T11:28:15.617Z,26.20
2019-05-20T11:30:44.080Z,26.75
2019-05-20T11:33:13.245Z,25.05
2019-05-20T11:35:42.361Z,28.85
2019-05-20T11:38:10.926Z,26.77
2019-05-20T11:40:39.568Z,29.90
2019-05-20T11:43:08.042Z,25.25
2019-05-20T11:45:36.595Z,24.77
2019-05-20T11:48:05.142Z,26.40
2019-05-20T11:50:34.439Z,22.70
2019-05-20T11:53:02.923Z,24.47
2019-05-20T11:55:31.612Z,26.97
2019-05-20T11:58:14.400Z,26.15
2019-05-20T12:00:30.385Z,25.75
2019-05-20T12:02:59.007Z,25.27
2019-05-20T12:05:27.570Z,24.75
2019-05-20T12:07:56.613Z,24.87
2019-05-20T12:10:25.180Z,23.85
2019-05-20T12:12:53.670Z,26.12
2019-05-20T12:15:22.227Z,23.70
2019-05-20T12:17:50.796Z,26.93
2019-05-20T12:20:20.332Z,27.32
2019-05-20T12:22:48.879Z,27.70
2019-05-20T12:25:17.742Z,26.37
2019-05-20T12:27:46.287Z,23.73
2019-05-20T12:30:15.494Z,23.12
2019-05-20T12:32:44.339Z,28.62
2019-05-20T12:35:13.145Z,24.18
2019-05-20T12:37:45.353Z,28.55
2019-05-20T12:40:12.561Z,29.10
2019-05-20T12:42:41.039Z,22.02
2019-05-20T12:45:10.571Z,27.48
2019-05-20T12:47:39.043Z,21.07
2019-05-20T12:50:08.583Z,26.77
2019-05-20T12:52:37.194Z,26.15
2019-05-20T12:55:10.234Z,24.32
2019-05-20T12:57:39.117Z,27.42
2019-05-20T13:00:10.143Z,22.73
2019-05-20T13:02:38.686Z,24.18
2019-05-20T13:05:08.010Z,23.92
2019-05-20T13:07:36.514Z,26.33
2019-05-20T13:10:26.881Z,23.22
2019-05-20T13:12:39.975Z,31.68
2019-05-20T13:15:10.098Z,29.85
2019-05-20T13:17:43.882Z,26.55
2019-05-20T13:20:09.650Z,27.10
2019-05-20T13:22:38.264Z,26.12
2019-05-20T13:25:07.250Z,25.55
2019-05-20T13:27:35.812Z,23.45
2019-05-20T13:30:07.146Z,26.90
2019-05-20T13:32:38.101Z,24.12
2019-05-20T13:35:07.581Z,21.10
2019-05-20T13:37:37.490Z,20.25
2019-05-20T13:40:06.618Z,20.82
2019-05-20T13:42:35.332Z,21.85
2019-05-20T13:45:05.743Z,21.02
2019-05-20T13:47:34.292Z,20.50
2019-05-20T13:50:04.311Z,19.23
2019-05-20T13:52:32.797Z,19.07
2019-05-20T13:55:01.370Z,19.20
2019-05-20T13:57:30.129Z,22.27
2019-05-20T13:59:58.667Z,24.15
2019-05-20T14:02:27.212Z,24.47
2019-05-20T14:04:55.692Z,25.60
2019-05-20T14:07:24.187Z,25.02
2019-05-20T14:09:52.659Z,24.45
2019-05-20T14:12:21.210Z,25.32
2019-05-20T14:14:49.780Z,22.90
2019-05-20T14:17:18.320Z,24.25
2019-05-20T14:19:46.904Z,26.25
2019-05-20T14:22:15.453Z,30.85
2019-05-20T14:24:44.565Z,25.57
2019-05-20T14:27:13.064Z,27.13
2019-05-20T14:29:43.713Z,26.33
2019-05-20T14:32:12.662Z,29.10
2019-05-20T14:34:41.163Z,27.20
2019-05-20T14:37:09.652Z,26.77
2019-05-20T14:39:38.228Z,24.60
2019-05-20T14:42:06.772Z,25.17
2019-05-20T14:44:35.310Z,26.17
2019-05-20T14:47:05.025Z,27.55
2019-05-20T14:49:33.552Z,29.42
2019-05-20T14:52:02.021Z,32.48
2019-05-20T14:54:30.604Z,29.50
2019-05-20T14:56:59.137Z,29.72
2019-05-20T14:59:27.767Z,34.70
2019-05-20T15:01:56.337Z,29.67
2019-05-20T15:04:24.815Z,31.50
2019-05-20T15:06:53.379Z,33.65
2019-05-20T15:09:21.979Z,34.15
2019-05-20T15:11:50.658Z,32.00
2019-05-20T15:14:19.151Z,33.18
2019-05-20T15:16:47.754Z,36.95
2019-05-20T15:19:16.293Z,32.38
2019-05-20T15:21:44.779Z,35.50
2019-05-20T15:24:13.399Z,36.45
2019-05-20T15:26:43.864Z,36.53
2019-05-20T15:29:26.994Z,33.83
2019-05-20T15:31:42.910Z,33.08
2019-05-20T15:34:11.491Z,38.40
2019-05-20T15:36:40.132Z,38.02
2019-05-20T15:39:08.950Z,38.30
2019-05-20T15:41:37.678Z,37.03
2019-05-20T15:44:06.269Z,43.75
2019-05-20T15:46:34.912Z,39.45
2019-05-20T15:49:04.311Z,39.10
2019-05-20T15:51:33.551Z,44.35
2019-05-20T15:54:02.057Z,42.15
2019-05-20T15:56:30.629Z,38.00
2019-05-20T15:58:59.187Z,42.48
2019-05-20T16:01:27.756Z,37.17
2019-05-20T16:03:56.261Z,35.55
2019-05-20T16:06:29.936Z,37.05
2019-05-20T16:09:03.455Z,37.58
2019-05-20T16:11:35.826Z,37.78
2019-05-20T16:14:01.679Z,39.53
2019-05-20T16:16:30.147Z,37.67
2019-05-20T16:18:58.823Z,35.52
2019-05-20T16:21:28.049Z,38.98
2019-05-20T16:23:56.619Z,30.52
2019-05-20T16:26:25.155Z,31.48
2019-05-20T16:28:53.759Z,34.70
2019-05-20T16:31:22.331Z,32.80
2019-05-20T16:33:50.812Z,29.10
2019-05-20T16:36:19.830Z,31.75
2019-05-20T16:38:51.652Z,31.05
2019-05-20T16:41:20.399Z,32.00
2019-05-20T16:43:48.886Z,35.45
2019-05-20T16:46:17.366Z,33.45
2019-05-20T16:48:45.867Z,36.50
2019-05-20T16:51:14.608Z,33.13
2019-05-20T16:54:06.639Z,38.15
2019-05-20T16:56:35.442Z,35.13
2019-05-20T16:59:11.843Z,33.00
2019-05-20T17:01:47.504Z,36.23
2019-05-20T17:04:17.824Z,34.88
2019-05-20T17:06:43.538Z,40.95
2019-05-20T17:09:12.023Z,31.42
2019-05-20T17:11:40.526Z,40.45
2019-05-20T17:14:10.755Z,38.83
2019-05-20T17:16:43.592Z,40.67
2019-05-20T17:19:15.246Z,41.42
2019-05-20T17:21:43.878Z,40.12
2019-05-20T17:24:15.274Z,41.13
2019-05-20T17:26:43.751Z,38.05
2019-05-20T17:29:12.223Z,33.65
2019-05-20T17:31:40.718Z,38.92
2019-05-20T17:34:09.463Z,37.67
2019-05-20T17:36:39.693Z,33.78
2019-05-20T17:39:16.487Z,34.70
2019-05-20T17:41:45.102Z,34.33
2019-05-20T17:44:22.059Z,32.88
2019-05-20T17:46:50.221Z,29.57
2019-05-20T17:49:19.057Z,33.67
2019-05-20T17:51:47.561Z,34.55
2019-05-20T17:54:16.122Z,38.80
2019-05-20T17:56:44.682Z,34.00
2019-05-20T17:59:13.162Z,30.57
2019-05-20T18:01:41.672Z,32.30
2019-05-20T18:04:10.155Z,34.40
2019-05-20T18:06:38.623Z,32.75
2019-05-20T18:09:08.859Z,31.93
2019-05-20T18:11:42.330Z,33.38
2019-05-20T18:14:10.984Z,28.45
2019-05-20T18:16:39.863Z,24.32
2019-05-20T18:19:08.475Z,26.55
2019-05-20T18:21:37.038Z,26.42
2019-05-20T18:24:05.904Z,26.82
2019-05-20T18:26:38.100Z,30.75
2019-05-20T18:29:12.438Z,30.62
2019-05-20T18:31:40.932Z,27.27
2019-05-20T18:34:11.042Z,24.70
2019-05-20T18:36:43.983Z,25.72
2019-05-20T18:39:20.058Z,23.90
2019-05-20T18:41:45.951Z,25.50
2019-05-20T18:44:14.558Z,20.88
2019-05-20T18:46:43.064Z,26.97
2019-05-20T18:49:13.003Z,25.90
2019-05-20T18:51:41.446Z,22.95
2019-05-20T18:54:10.873Z,24.55
2019-05-20T18:56:58.746Z,27.05
2019-05-20T18:59:27.222Z,21.75
2019-05-20T19:02:04.580Z,22.05
2019-05-20T19:04:25.956Z,22.05
2019-05-20T19:06:54.599Z,23.83
2019-05-20T19:09:23.110Z,20.97
2019-05-20T19:11:51.588Z,24.10
2019-05-20T19:14:20.135Z,21.45
2019-05-20T19:16:48.651Z,19.60
2019-05-20T19:19:17.279Z,20.00
2019-05-20T19:21:45.762Z,18.23
2019-05-20T19:24:18.089Z,23.18
2019-05-20T19:27:05.643Z,24.27
2019-05-20T19:29:34.192Z,20.17
2019-05-20T19:32:02.754Z,19.90
2019-05-20T19:34:31.253Z,22.57
2019-05-20T19:36:59.812Z,21.00
2019-05-20T19:39:28.300Z,23.05
2019-05-20T19:41:57.175Z,17.23
2019-05-20T19:44:25.657Z,22.75
2019-05-20T19:46:54.135Z,22.17
2019-05-20T19:49:22.613Z,21.23
2019-05-20T19:51:51.235Z,25.02
2019-05-20T19:54:19.785Z,23.43
2019-05-20T19:56:48.262Z,20.97
2019-05-20T19:59:16.765Z,23.30
2019-05-20T20:01:45.230Z,22.70
2019-05-20T20:04:13.777Z,23.18
2019-05-20T20:06:42.267Z,22.97
2019-05-20T20:09:12.447Z,25.67
2019-05-20T20:11:41.133Z,23.70
2019-05-20T20:14:09.606Z,23.53
2019-05-20T20:16:38.061Z,21.97
2019-05-20T20:19:08.283Z,22.77
2019-05-20T20:21:42.862Z,21.37
2019-05-20T20:24:13.046Z,20.53
2019-05-20T20:26:45.741Z,18.27
2019-05-20T20:29:14.201Z,21.05
2019-05-20T20:31:45.082Z,24.37
2019-05-20T20:34:15.746Z,20.07
2019-05-20T20:36:49.328Z,26.13
2019-05-20T20:39:22.326Z,18.80
2019-05-20T20:41:51.212Z,20.20
2019-05-20T20:44:22.721Z,18.70
2019-05-20T20:46:55.365Z,20.37
2019-05-20T20:49:23.412Z,25.53
2019-05-20T20:51:55.551Z,23.23
2019-05-20T20:54:28.314Z,21.90
2019-05-20T20:56:59.519Z,28.10
2019-05-20T20:59:27.979Z,26.20
2019-05-20T21:01:59.117Z,24.97
2019-05-20T21:04:26.750Z,22.97
2019-05-20T21:06:55.268Z,21.90
2019-05-20T21:09:23.899Z,31.10
2019-05-20T21:11:52.646Z,26.53
2019-05-20T21:14:21.305Z,27.23
2019-05-20T21:16:50.016Z,27.53
2019-05-20T21:19:18.557Z,33.47
2019-05-20T21:21:47.199Z,37.50
2019-05-20T21:24:15.843Z,37.47
2019-05-20T21:26:48.579Z,35.50
2019-05-20T21:29:19.883Z,33.43
2019-05-20T21:31:48.650Z,32.60
2019-05-20T21:34:18.930Z,37.93
2019-05-20T21:37:00.261Z,33.27
2019-05-20T21:39:28.821Z,36.90
2019-05-20T21:42:07.596Z,38.97
2019-05-20T21:44:39.558Z,29.30
2019-05-20T21:47:15.174Z,35.70
2019-05-20T21:49:43.669Z,32.63
2019-05-20T21:52:12.228Z,38.37
2019-05-20T21:54:40.690Z,29.17
2019-05-20T21:57:09.508Z,35.48
2019-05-20T21:59:37.995Z,30.10
2019-05-20T22:02:06.646Z,36.17
2019-05-20T22:04:35.194Z,34.13
2019-05-20T22:07:04.876Z,35.70
2019-05-20T22:09:33.430Z,44.20
2019-05-20T22:12:01.994Z,31.40
2019-05-20T22:14:30.744Z,33.17
2019-05-20T22:16:59.669Z,34.13
2019-05-20T22:19:28.171Z,33.37
2019-05-20T22:22:14.717Z,32.50
2019-05-20T22:24:43.216Z,31.17
2019-05-20T22:27:11.779Z,30.90
2019-05-20T22:29:40.266Z,33.30
2019-05-20T22:32:08.838Z,32.17
2019-05-20T22:34:37.317Z,28.63
2019-05-20T22:37:05.821Z,29.87
2019-05-20T22:39:34.686Z,31.77
2019-05-20T22:42:03.185Z,31.30
2019-05-20T22:44:31.776Z,33.70
2019-05-20T22:47:00.731Z,34.93
2019-05-20T22:49:29.266Z,31.80
2019-05-20T22:51:58.002Z,31.83
2019-05-20T22:54:26.545Z,40.27
2019-05-20T22:56:55.025Z,34.07
2019-05-20T22:59:23.583Z,37.30
2019-05-20T23:01:52.125Z,38.70
2019-05-20T23:04:40.017Z,35.87
2019-05-20T23:07:08.569Z,40.37
2019-05-20T23:09:37.123Z,36.13
2019-05-20T23:12:05.654Z,35.87
2019-05-20T23:14:53.479Z,32.60
2019-05-20T23:17:21.953Z,36.08
2019-05-20T23:19:51.869Z,33.70
2019-05-20T23:22:20.389Z,40.30
2019-05-20T23:24:48.922Z,39.37
2019-05-20T23:27:17.494Z,31.63
2019-05-20T23:29:45.958Z,31.93
2019-05-20T23:32:14.602Z,34.88
2019-05-20T23:34:43.213Z,34.93
2019-05-20T23:37:11.691Z,35.47
2019-05-20T23:39:40.176Z,36.13
2019-05-20T23:42:08.643Z,39.50
2019-05-20T23:44:37.108Z,37.83
2019-05-20T23:47:05.602Z,34.73
2019-05-20T23:49:34.073Z,36.47
2019-05-20T23:52:02.712Z,37.70
2019-05-20T23:54:31.212Z,35.70
2019-05-20T23:56:59.690Z,37.63
2019-05-20T23:59:28.279Z,33.83
